Time;durP1;ratioP1;P1;durP2;ratioP2;P2;SDS_P1;SDS_P2;PMS_P1;PMS_P2;Temp;Humidity;BMP_temperature;BMP_pressure;BME280_temperature;BME280_humidity;BME280_pressure;Samples;Min_cycle;Max_cycle;Signal;HPM_P1;HPM_P2
2022/05/13 00:01:42;;;;;;;;;;;11.20;99.90;;;;;;5136331;27;19958;-59
2022/05/13 00:04:08;;;;;;;;;;;11.20;99.90;;;;;;5153962;27;19923;-59
2022/05/13 00:06:34;;;;;;;;;;;11.30;99.90;;;;;;5135841;27;19925;-59
2022/05/13 00:08:59;;;;;;;;;;;11.30;99.90;;;;;;5154976;27;19930;-59
2022/05/13 00:11:25;;;;;;;;;;;11.30;99.90;;;;;;5135476;27;20101;-59
2022/05/13 00:13:51;;;;;;;;;;;11.70;99.90;;;;;;5154262;27;19927;-58
2022/05/13 00:16:16;;;;;;;;;;;11.30;99.90;;;;;;5154461;27;19923;-59
2022/05/13 00:18:42;;;;;;;;;;;11.30;99.90;;;;;;5154048;27;20388;-59
2022/05/13 00:21:08;;;;;;;;;;;11.40;99.90;;;;;;5154291;27;19923;-59
2022/05/13 00:23:34;;;;;;;;;;;11.40;99.90;;;;;;5154476;27;19923;-59
2022/05/13 00:25:59;;;;;;;;;;;11.40;99.90;;;;;;5150188;27;19968;-59
2022/05/13 00:28:25;;;;;;;;;;;12.10;99.90;;;;;;5141514;27;19979;-59
2022/05/13 00:30:51;;;;;;;;;;;11.40;99.90;;;;;;5154759;27;20018;-59
2022/05/13 00:33:17;;;;;;;;;;;11.40;99.90;;;;;;5153406;27;19923;-59
2022/05/13 00:35:43;;;;;;;;;;;11.30;99.90;;;;;;5101008;28;20018;-59
2022/05/13 00:38:09;;;;;;;;;;;11.40;99.90;;;;;;5133821;28;20018;-58
2022/05/13 00:40:36;;;;;;;;;;;11.40;99.90;;;;;;5137184;27;20289;-59
2022/05/13 00:43:03;;;;;;;;;;;11.40;99.90;;;;;;5154774;27;19930;-59
2022/05/13 00:45:31;;;;;;;;;;;11.40;99.90;;;;;;5153924;27;20018;-59
2022/05/13 00:47:57;;;;;;;;;;;11.40;99.90;;;;;;5135431;27;19923;-59
2022/05/13 00:50:24;;;;;;;;;;;11.40;99.90;;;;;;5154171;27;20297;-59
2022/05/13 00:52:50;;;;;;;;;;;11.40;99.90;;;;;;5154245;27;20292;-59
2022/05/13 00:55:21;;;;;;;;;;;11.40;99.90;;;;;;5135167;27;19923;-59
2022/05/13 00:57:48;;;;;;;;;;;11.40;99.90;;;;;;5157103;27;19927;-59
2022/05/13 01:00:14;;;;;;;;;;;11.40;99.90;;;;;;5136105;27;19924;-59
2022/05/13 01:02:43;;;;;;;;;;;11.40;99.90;;;;;;5137560;27;19923;-59
2022/05/13 01:05:09;;;;;;;;;;;11.70;99.90;;;;;;5137567;27;19923;-59
2022/05/13 01:07:35;;;;;;;;;;;11.40;99.90;;;;;;5144083;27;19927;-59
2022/05/13 01:10:03;;;;;;;;;;;11.40;99.90;;;;;;5139180;27;19930;-59
2022/05/13 01:12:31;;;;;;;;;;;11.50;99.90;;;;;;5139311;27;20438;-59
2022/05/13 01:15:00;;;;;;;;;;;11.50;99.90;;;;;;5156331;27;20021;-59
2022/05/13 01:20:14;;;;;;;;;;;11.50;99.90;;;;;;5157423;27;20345;-58
2022/05/13 01:22:42;;;;;;;;;;;11.50;99.90;;;;;;5157033;27;20299;-59
2022/05/13 01:25:08;;;;;;;;;;;11.50;99.90;;;;;;5157121;27;19962;-59
2022/05/13 01:27:34;;;;;;;;;;;11.50;99.90;;;;;;5140777;27;19928;-59
2022/05/13 01:29:59;;;;;;;;;;;11.40;99.90;;;;;;5157259;27;19967;-59
2022/05/13 01:32:25;;;;;;;;;;;11.50;99.90;;;;;;5157608;27;19919;-59
2022/05/13 01:34:51;;;;;;;;;;;11.50;99.90;;;;;;5127935;27;19923;-59
2022/05/13 01:37:16;;;;;;;;;;;11.50;99.90;;;;;;5135674;27;19984;-59
2022/05/13 01:39:42;;;;;;;;;;;11.50;99.90;;;;;;5136396;27;19924;-59
2022/05/13 01:42:08;;;;;;;;;;;11.70;99.90;;;;;;5136791;27;19923;-58
2022/05/13 01:44:34;;;;;;;;;;;11.50;99.90;;;;;;5139864;27;19967;-59
2022/05/13 01:46:59;;;;;;;;;;;11.50;99.90;;;;;;5157351;27;19981;-59
2022/05/13 01:49:25;;;;;;;;;;;11.40;99.90;;;;;;5156814;27;19923;-59
2022/05/13 01:51:51;;;;;;;;;;;11.40;99.90;;;;;;5156241;27;19980;-58
2022/05/13 01:54:16;;;;;;;;;;;11.40;99.90;;;;;;5156943;27;19926;-59
2022/05/13 01:56:42;;;;;;;;;;;11.40;99.90;;;;;;5156456;27;19963;-59
2022/05/13 01:59:07;;;;;;;;;;;11.50;99.90;;;;;;5138116;27;20009;-59
2022/05/13 02:01:33;;;;;;;;;;;11.40;99.90;;;;;;5120943;27;20014;-59
2022/05/13 02:03:59;;;;;;;;;;;11.40;99.90;;;;;;5156386;27;20343;-59
2022/05/13 02:06:26;;;;;;;;;;;11.40;99.90;;;;;;5156565;27;20034;-59
2022/05/13 02:08:53;;;;;;;;;;;11.40;99.90;;;;;;5155283;27;19923;-59
2022/05/13 02:11:20;;;;;;;;;;;11.40;99.90;;;;;;5137390;27;20018;-58
2022/05/13 02:13:45;;;;;;;;;;;11.40;99.90;;;;;;5156658;27;19923;-59
2022/05/13 02:16:12;;;;;;;;;;;11.40;99.90;;;;;;5156309;27;19924;-59
2022/05/13 02:18:38;;;;;;;;;;;11.40;99.90;;;;;;5136671;27;19929;-59
2022/05/13 02:21:03;;;;;;;;;;;11.40;99.90;;;;;;5137878;27;20017;-59
2022/05/13 02:23:29;;;;;;;;;;;11.40;99.90;;;;;;5156339;27;19926;-59
2022/05/13 02:25:58;;;;;;;;;;;11.40;99.90;;;;;;5152797;27;19923;-58
2022/05/13 02:28:24;;;;;;;;;;;11.30;99.90;;;;;;5153655;27;19958;-59
2022/05/13 02:30:49;;;;;;;;;;;11.40;99.90;;;;;;5156134;27;20375;-59
2022/05/13 02:33:15;;;;;;;;;;;11.40;99.90;;;;;;5136765;27;19979;-59
2022/05/13 02:35:40;;;;;;;;;;;11.40;99.90;;;;;;5155364;27;19972;-59
2022/05/13 02:38:06;;;;;;;;;;;11.40;99.90;;;;;;5137466;27;19934;-59
2022/05/13 02:43:16;;;;;;;;;;;11.40;99.90;;;;;;5155994;27;19930;-59
2022/05/13 02:45:42;;;;;;;;;;;11.40;99.90;;;;;;5136149;27;19938;-59
2022/05/13 02:48:07;;;;;;;;;;;11.60;99.90;;;;;;5156276;27;19923;-59
2022/05/13 02:50:33;;;;;;;;;;;11.40;99.90;;;;;;5136989;27;19976;-58
2022/05/13 02:52:59;;;;;;;;;;;11.40;99.90;;;;;;5142502;27;19923;-59
2022/05/13 02:55:25;;;;;;;;;;;11.50;99.90;;;;;;5155896;27;19927;-58
2022/05/13 02:57:50;;;;;;;;;;;11.80;99.90;;;;;;5155620;27;20010;-59
2022/05/13 03:00:16;;;;;;;;;;;11.40;99.90;;;;;;5136585;27;19977;-59
2022/05/13 03:02:43;;;;;;;;;;;11.40;99.90;;;;;;5136876;27;20368;-58
2022/05/13 03:05:09;;;;;;;;;;;11.40;99.90;;;;;;5155520;27;19927;-59
2022/05/13 03:07:34;;;;;;;;;;;11.40;99.90;;;;;;5155148;27;19927;-59
2022/05/13 03:10:00;;;;;;;;;;;11.50;99.90;;;;;;5155813;27;19976;-59
2022/05/13 03:12:26;;;;;;;;;;;11.50;99.90;;;;;;5138724;27;19923;-59
2022/05/13 03:14:51;;;;;;;;;;;11.50;99.90;;;;;;5133784;27;20022;-58
2022/05/13 03:17:17;;;;;;;;;;;11.50;99.90;;;;;;5137033;27;20014;-59
2022/05/13 03:19:42;;;;;;;;;;;11.40;99.90;;;;;;5154416;27;19975;-59
2022/05/13 03:22:08;;;;;;;;;;;11.50;99.90;;;;;;5154846;27;19923;-59
2022/05/13 03:24:34;;;;;;;;;;;11.40;99.90;;;;;;5155571;27;19923;-59
2022/05/13 03:27:00;;;;;;;;;;;11.40;99.90;;;;;;5142906;27;20297;-58
2022/05/13 03:29:26;;;;;;;;;;;11.40;99.90;;;;;;5131263;27;19928;-59
2022/05/13 03:31:51;;;;;;;;;;;11.40;99.90;;;;;;5155170;27;19922;-59
2022/05/13 03:34:17;;;;;;;;;;;11.40;99.90;;;;;;5130629;27;19984;-59
2022/05/13 03:36:42;;;;;;;;;;;11.30;99.90;;;;;;5133930;27;19930;-59
2022/05/13 03:39:08;;;;;;;;;;;11.30;99.90;;;;;;5133451;27;19929;-59
2022/05/13 03:41:34;;;;;;;;;;;11.30;99.90;;;;;;5154707;27;19924;-58
2022/05/13 03:44:00;;;;;;;;;;;11.30;99.90;;;;;;5154396;27;19923;-59
2022/05/13 03:46:25;;;;;;;;;;;11.30;99.90;;;;;;5150391;27;19924;-59
2022/05/13 03:48:51;;;;;;;;;;;11.30;99.90;;;;;;5134185;27;19927;-59
2022/05/13 03:51:16;;;;;;;;;;;11.30;99.90;;;;;;5115248;27;20365;-59
2022/05/13 03:53:42;;;;;;;;;;;11.20;99.90;;;;;;5115568;28;20372;-59
2022/05/13 03:56:08;;;;;;;;;;;11.20;99.90;;;;;;5144802;27;19930;-58
2022/05/13 03:58:33;;;;;;;;;;;11.20;99.90;;;;;;5136224;27;19927;-59
2022/05/13 04:00:59;;;;;;;;;;;11.20;99.90;;;;;;5155049;27;19923;-59
2022/05/13 04:03:25;;;;;;;;;;;11.20;99.90;;;;;;5135232;27;19923;-59
2022/05/13 04:11:19;;;;;;;;;;;11.20;99.90;;;;;;5154003;27;19977;-59
2022/05/13 04:16:28;;;;;;;;;;;11.30;99.90;;;;;;5154407;27;19949;-59
2022/05/13 04:18:54;;;;;;;;;;;11.30;99.90;;;;;;5153506;27;19960;-59
2022/05/13 04:21:21;;;;;;;;;;;11.40;99.90;;;;;;5154262;27;20407;-59
2022/05/13 04:23:48;;;;;;;;;;;11.40;99.90;;;;;;5115515;28;20362;-59
2022/05/13 04:26:14;;;;;;;;;;;11.40;99.90;;;;;;5138465;27;20285;-59
2022/05/13 04:28:41;;;;;;;;;;;11.40;99.90;;;;;;5154699;27;20018;-59
2022/05/13 04:31:07;;;;;;;;;;;11.40;99.90;;;;;;5154822;27;20402;-59
2022/05/13 04:33:33;;;;;;;;;;;11.50;99.90;;;;;;5157781;27;19923;-59
2022/05/13 04:35:58;;;;;;;;;;;11.40;99.90;;;;;;5138631;27;19923;-58
2022/05/13 04:38:24;;;;;;;;;;;11.50;99.90;;;;;;5137207;27;20010;-59
2022/05/13 04:40:50;;;;;;;;;;;11.50;99.90;;;;;;5152782;27;19929;-59
2022/05/13 04:43:15;;;;;;;;;;;11.60;99.90;;;;;;5139724;27;19930;-59
2022/05/13 04:45:42;;;;;;;;;;;11.70;99.90;;;;;;5157629;27;19930;-58
2022/05/13 04:48:16;;;;;;;;;;;11.70;99.90;;;;;;5157851;27;19923;-59
2022/05/13 04:50:43;;;;;;;;;;;11.70;99.90;;;;;;5158426;27;19923;-59
2022/05/13 04:53:09;;;;;;;;;;;11.80;99.90;;;;;;5138838;27;19922;-58
2022/05/13 04:55:35;;;;;;;;;;;11.80;99.90;;;;;;5157669;27;20396;-59
2022/05/13 04:58:01;;;;;;;;;;;11.80;99.90;;;;;;5158009;27;19923;-58
2022/05/13 05:00:27;;;;;;;;;;;11.90;99.90;;;;;;5157505;27;19972;-59
2022/05/13 05:02:52;;;;;;;;;;;11.90;99.90;;;;;;5158003;27;20391;-59
2022/05/13 05:05:18;;;;;;;;;;;11.90;99.90;;;;;;5158107;27;20275;-59
2022/05/13 05:07:44;;;;;;;;;;;12.00;99.90;;;;;;5156841;27;20345;-59
2022/05/13 05:10:10;;;;;;;;;;;12.00;99.90;;;;;;5157669;27;19923;-58
2022/05/13 05:12:36;;;;;;;;;;;12.50;99.90;;;;;;5158022;27;19923;-58
2022/05/13 05:15:03;;;;;;;;;;;12.00;99.90;;;;;;5120984;27;19998;-59
2022/05/13 05:17:28;;;;;;;;;;;12.00;99.90;;;;;;5157523;27;20301;-59
2022/05/13 05:19:54;;;;;;;;;;;12.00;99.90;;;;;;5139258;27;19923;-59
2022/05/13 05:22:19;;;;;;;;;;;12.00;99.90;;;;;;5138733;27;20361;-59
2022/05/13 05:24:46;;;;;;;;;;;12.00;99.90;;;;;;5156756;27;20365;-59
2022/05/13 05:27:12;;;;;;;;;;;12.00;99.90;;;;;;5143480;27;20330;-59
2022/05/13 05:29:38;;;;;;;;;;;12.00;99.90;;;;;;5154152;27;19970;-58
2022/05/13 05:32:04;;;;;;;;;;;12.20;99.90;;;;;;5157115;27;19948;-59
2022/05/13 05:34:29;;;;;;;;;;;12.00;99.90;;;;;;5149527;27;19931;-58
2022/05/13 05:36:55;;;;;;;;;;;12.10;99.90;;;;;;5136774;27;19934;-59
2022/05/13 05:39:20;;;;;;;;;;;12.20;99.90;;;;;;5136145;27;20004;-59
2022/05/13 05:41:46;;;;;;;;;;;12.20;99.90;;;;;;5142888;27;19923;-59
2022/05/13 05:44:12;;;;;;;;;;;12.30;99.90;;;;;;5157514;27;19923;-59
2022/05/13 05:46:38;;;;;;;;;;;12.30;99.90;;;;;;5157128;27;19923;-59
2022/05/13 05:49:04;;;;;;;;;;;12.40;99.90;;;;;;5156637;27;19931;-59
2022/05/13 05:51:30;;;;;;;;;;;12.60;99.90;;;;;;5142112;27;19924;-59
2022/05/13 05:59:25;;;;;;;;;;;12.80;99.90;;;;;;5142830;27;19956;-59
2022/05/13 06:01:50;;;;;;;;;;;12.90;99.90;;;;;;5138382;27;19930;-59
2022/05/13 06:04:16;;;;;;;;;;;12.90;99.90;;;;;;5156356;27;20353;-59
2022/05/13 06:06:42;;;;;;;;;;;13.00;99.90;;;;;;5156577;27;20358;-59
2022/05/13 06:09:08;;;;;;;;;;;13.10;99.90;;;;;;5155741;27;19982;-59
2022/05/13 06:11:34;;;;;;;;;;;13.10;99.90;;;;;;5156073;27;19927;-60
2022/05/13 06:13:59;;;;;;;;;;;13.20;99.90;;;;;;5156711;27;19923;-60
2022/05/13 06:16:26;;;;;;;;;;;13.20;99.90;;;;;;5154169;27;20274;-60
2022/05/13 06:18:52;;;;;;;;;;;13.20;99.90;;;;;;5154880;27;20312;-60
2022/05/13 06:21:18;;;;;;;;;;;13.20;99.90;;;;;;5156233;27;19923;-60
2022/05/13 06:23:43;;;;;;;;;;;13.10;99.90;;;;;;5155126;27;19931;-60
2022/05/13 06:26:09;;;;;;;;;;;13.10;99.90;;;;;;5150852;27;19973;-60
2022/05/13 06:28:34;;;;;;;;;;;13.10;99.90;;;;;;5126511;27;19927;-60
2022/05/13 06:31:00;;;;;;;;;;;13.10;99.90;;;;;;5155375;27;20371;-60
2022/05/13 06:33:26;;;;;;;;;;;13.10;99.90;;;;;;5156065;27;19923;-59
2022/05/13 06:35:52;;;;;;;;;;;13.10;99.90;;;;;;5140349;27;19984;-59
2022/05/13 06:38:20;;;;;;;;;;;13.10;99.90;;;;;;5135001;27;19931;-59
2022/05/13 06:40:47;;;;;;;;;;;13.10;99.90;;;;;;5135448;27;20361;-60
2022/05/13 06:43:13;;;;;;;;;;;13.30;99.90;;;;;;5136862;27;19966;-59
2022/05/13 06:45:39;;;;;;;;;;;13.20;99.90;;;;;;5155428;27;20005;-59
2022/05/13 06:48:05;;;;;;;;;;;13.20;99.90;;;;;;5155870;27;19949;-60
2022/05/13 06:50:32;;;;;;;;;;;13.30;99.90;;;;;;5137437;27;19930;-60
2022/05/13 06:52:57;;;;;;;;;;;13.20;99.90;;;;;;5136061;27;19926;-59
2022/05/13 06:55:23;;;;;;;;;;;13.40;99.90;;;;;;5155068;27;20009;-59
2022/05/13 06:57:49;;;;;;;;;;;13.40;99.90;;;;;;5155828;27;19923;-60
2022/05/13 07:00:15;;;;;;;;;;;13.40;99.90;;;;;;5154898;27;20079;-59
2022/05/13 07:02:41;;;;;;;;;;;13.50;99.90;;;;;;5155462;27;20395;-59
2022/05/13 07:05:08;;;;;;;;;;;13.60;99.90;;;;;;5155870;27;19946;-60
2022/05/13 07:07:33;;;;;;;;;;;13.60;99.90;;;;;;5154990;27;19927;-60
2022/05/13 07:09:59;;;;;;;;;;;13.70;99.90;;;;;;5151791;27;19930;-59
2022/05/13 07:12:25;;;;;;;;;;;13.70;99.90;;;;;;5154858;27;19939;-60
2022/05/13 07:14:50;;;;;;;;;;;13.80;99.90;;;;;;5154815;27;20023;-60
2022/05/13 07:17:16;;;;;;;;;;;13.90;99.90;;;;;;5136526;27;20023;-60
2022/05/13 07:19:41;;;;;;;;;;;14.00;99.90;;;;;;5151575;27;19958;-60
2022/05/13 07:22:07;;;;;;;;;;;14.10;99.90;;;;;;5154246;27;19951;-60
2022/05/13 07:24:33;;;;;;;;;;;14.20;99.90;;;;;;5154948;27;19983;-60
2022/05/13 07:26:58;;;;;;;;;;;14.30;99.90;;;;;;5155213;27;19923;-60
2022/05/13 07:29:24;;;;;;;;;;;14.30;99.90;;;;;;5154764;27;19923;-60
2022/05/13 07:31:50;;;;;;;;;;;14.20;99.90;;;;;;5155030;27;19923;-60
2022/05/13 07:34:15;;;;;;;;;;;14.20;99.90;;;;;;5154664;27;19923;-60
2022/05/13 07:36:41;;;;;;;;;;;14.10;99.90;;;;;;5154874;27;19923;-60
2022/05/13 07:41:51;;;;;;;;;;;14.10;99.90;;;;;;5136015;27;19930;-60
2022/05/13 07:44:17;;;;;;;;;;;14.10;99.90;;;;;;5154695;27;20456;-60
2022/05/13 07:46:43;;;;;;;;;;;14.00;99.90;;;;;;5154564;27;20369;-60
2022/05/13 07:49:09;;;;;;;;;;;13.90;99.90;;;;;;5154379;27;19930;-60
2022/05/13 07:51:35;;;;;;;;;;;13.90;99.90;;;;;;5155165;27;19927;-60
2022/05/13 07:54:00;;;;;;;;;;;14.20;99.90;;;;;;5154230;27;19996;-60
2022/05/13 07:56:26;;;;;;;;;;;14.50;99.90;;;;;;5153611;27;19970;-60
2022/05/13 07:58:52;;;;;;;;;;;14.70;99.90;;;;;;5154342;27;20373;-61
2022/05/13 08:01:17;;;;;;;;;;;14.70;99.90;;;;;;5154205;27;19923;-60
2022/05/13 08:03:43;;;;;;;;;;;14.80;99.90;;;;;;5150677;27;20018;-60
2022/05/13 08:06:09;;;;;;;;;;;15.10;99.90;;;;;;5155298;27;19923;-60
2022/05/13 08:08:36;;;;;;;;;;;15.20;99.90;;;;;;5158322;27;19933;-60
2022/05/13 08:11:05;;;;;;;;;;;15.20;99.90;;;;;;5139331;27;19927;-60
2022/05/13 08:13:31;;;;;;;;;;;15.10;99.90;;;;;;5155288;27;19919;-60
2022/05/13 08:15:57;;;;;;;;;;;15.10;99.90;;;;;;5158068;27;20387;-61
2022/05/13 08:18:23;;;;;;;;;;;14.90;99.90;;;;;;5157786;27;20010;-60
2022/05/13 08:20:49;;;;;;;;;;;14.70;99.90;;;;;;5155221;27;20009;-60
2022/05/13 08:23:15;;;;;;;;;;;14.50;99.90;;;;;;5158035;27;19927;-60
2022/05/13 08:25:41;;;;;;;;;;;14.40;99.90;;;;;;5157851;27;19976;-60
2022/05/13 08:28:08;;;;;;;;;;;14.30;99.90;;;;;;5155818;27;19992;-60
2022/05/13 08:30:33;;;;;;;;;;;14.30;99.90;;;;;;5154351;27;19966;-60
2022/05/13 08:33:01;;;;;;;;;;;14.30;99.90;;;;;;5158303;27;19955;-60
2022/05/13 08:35:27;;;;;;;;;;;14.20;99.90;;;;;;5155663;27;19923;-60
2022/05/13 08:37:53;;;;;;;;;;;14.20;99.90;;;;;;5156964;27;19923;-60
2022/05/13 08:40:37;;;;;;;;;;;14.30;99.90;;;;;;5155257;27;19948;-60
2022/05/13 08:43:05;;;;;;;;;;;14.50;99.90;;;;;;5139051;27;19923;-60
2022/05/13 08:45:31;;;;;;;;;;;14.40;99.90;;;;;;5157007;27;19931;-60
2022/05/13 08:47:58;;;;;;;;;;;14.50;99.90;;;;;;5155025;27;20014;-60
2022/05/13 08:50:24;;;;;;;;;;;14.30;99.90;;;;;;5158033;27;20285;-60
2022/05/13 08:53:06;;;;;;;;;;;14.30;99.90;;;;;;5156742;27;19967;-59
2022/05/13 08:55:35;;;;;;;;;;;14.40;99.90;;;;;;5155876;27;19930;-60
2022/05/13 08:58:03;;;;;;;;;;;14.50;99.90;;;;;;5158285;27;19930;-60
2022/05/13 09:00:31;;;;;;;;;;;14.50;99.90;;;;;;5138317;27;19919;-60
2022/05/13 09:03:03;;;;;;;;;;;14.50;99.90;;;;;;5158088;27;19923;-60
2022/05/13 09:05:31;;;;;;;;;;;14.50;99.90;;;;;;5157479;27;19968;-60
2022/05/13 09:07:57;;;;;;;;;;;14.50;99.90;;;;;;5157523;27;19949;-60
2022/05/13 09:10:23;;;;;;;;;;;14.80;99.90;;;;;;5158274;27;20264;-60
2022/05/13 09:12:53;;;;;;;;;;;14.80;99.90;;;;;;5157297;27;19973;-60
2022/05/13 09:15:22;;;;;;;;;;;14.90;99.90;;;;;;5139133;27;20399;-60
2022/05/13 09:17:48;;;;;;;;;;;15.00;99.90;;;;;;5143319;27;20383;-60
2022/05/13 09:20:15;;;;;;;;;;;15.00;99.90;;;;;;5138247;27;19923;-60
2022/05/13 09:22:44;;;;;;;;;;;15.30;99.90;;;;;;5138819;27;20008;-60
2022/05/13 09:25:15;;;;;;;;;;;15.40;99.90;;;;;;5157924;27;19929;-60
2022/05/13 09:27:42;;;;;;;;;;;15.20;99.90;;;;;;5121701;27;19930;-60
2022/05/13 09:30:08;;;;;;;;;;;15.10;99.90;;;;;;5157266;27;19976;-60
2022/05/13 09:32:34;;;;;;;;;;;14.90;99.90;;;;;;5157013;27;19923;-60
2022/05/13 09:35:05;;;;;;;;;;;14.70;99.90;;;;;;5126606;27;19927;-60
2022/05/13 09:37:37;;;;;;;;;;;14.70;99.90;;;;;;5118009;27;19970;-60
2022/05/13 09:40:07;;;;;;;;;;;14.70;99.90;;;;;;5120197;27;20002;-60
2022/05/13 09:42:36;;;;;;;;;;;14.80;99.90;;;;;;5135869;27;20378;-60
2022/05/13 09:45:12;;;;;;;;;;;14.80;99.90;;;;;;5144440;27;20002;-60
2022/05/13 09:47:37;;;;;;;;;;;14.70;99.90;;;;;;5157456;27;20016;-60
2022/05/13 09:50:12;;;;;;;;;;;14.60;99.90;;;;;;5137461;27;20398;-60
2022/05/13 09:52:38;;;;;;;;;;;14.60;99.90;;;;;;5156938;27;19974;-60
2022/05/13 09:55:12;;;;;;;;;;;14.80;99.90;;;;;;5156269;27;19985;-60
2022/05/13 09:57:38;;;;;;;;;;;15.00;99.90;;;;;;5138401;27;19923;-60
2022/05/13 10:00:04;;;;;;;;;;;15.00;99.90;;;;;;5137958;27;19975;-60
2022/05/13 10:02:39;;;;;;;;;;;14.90;99.90;;;;;;5156338;27;19923;-60
2022/05/13 10:05:17;;;;;;;;;;;14.80;99.90;;;;;;5156874;27;20355;-60
2022/05/13 10:07:49;;;;;;;;;;;15.00;99.90;;;;;;5156348;27;19923;-60
2022/05/13 10:15:56;;;;;;;;;;;15.10;99.90;;;;;;5148853;27;20369;-60
2022/05/13 10:18:24;;;;;;;;;;;15.10;99.90;;;;;;5147308;27;20351;-60
2022/05/13 10:20:52;;;;;;;;;;;15.10;99.90;;;;;;5156355;27;20288;-60
2022/05/13 10:23:26;;;;;;;;;;;15.10;99.90;;;;;;5156006;27;19923;-60
2022/05/13 10:25:54;;;;;;;;;;;15.30;99.90;;;;;;5153694;27;19923;-60
2022/05/13 10:28:21;;;;;;;;;;;15.40;99.90;;;;;;5141915;27;19929;-60
2022/05/13 10:30:50;;;;;;;;;;;15.40;99.90;;;;;;5155148;27;19975;-60
2022/05/13 10:33:26;;;;;;;;;;;15.70;99.90;;;;;;5156055;27;19927;-60
2022/05/13 10:36:05;;;;;;;;;;;15.80;99.90;;;;;;5137198;27;19923;-60
2022/05/13 10:38:36;;;;;;;;;;;16.10;99.90;;;;;;5116247;27;19978;-60
2022/05/13 10:41:20;;;;;;;;;;;16.30;99.90;;;;;;5135649;27;19927;-60
2022/05/13 10:43:49;;;;;;;;;;;16.50;99.90;;;;;;5133271;27;20004;-60
2022/05/13 10:46:20;;;;;;;;;;;16.50;99.90;;;;;;5154847;27;19933;-60
2022/05/13 10:48:49;;;;;;;;;;;16.40;99.90;;;;;;5137237;27;19993;-60
2022/05/13 10:51:19;;;;;;;;;;;16.20;99.90;;;;;;5151673;27;20369;-60
2022/05/13 10:53:45;;;;;;;;;;;16.20;99.90;;;;;;5155409;27;19938;-61
2022/05/13 10:56:15;;;;;;;;;;;16.20;99.90;;;;;;5136751;27;19945;-60
2022/05/13 10:58:49;;;;;;;;;;;16.10;99.90;;;;;;5154574;27;20388;-61
2022/05/13 11:01:24;;;;;;;;;;;15.90;99.90;;;;;;5154682;27;20035;-60
2022/05/13 11:03:58;;;;;;;;;;;15.90;99.90;;;;;;5155460;27;20364;-61
2022/05/13 11:06:34;;;;;;;;;;;15.80;99.90;;;;;;5154705;27;19927;-60
2022/05/13 11:09:04;;;;;;;;;;;15.90;99.90;;;;;;5155297;27;19923;-60
2022/05/13 11:11:36;;;;;;;;;;;15.90;99.90;;;;;;5136935;27;20296;-61
2022/05/13 11:14:02;;;;;;;;;;;16.00;99.90;;;;;;5135914;27;19923;-60
2022/05/13 11:16:37;;;;;;;;;;;16.20;99.90;;;;;;5155300;27;19924;-60
2022/05/13 11:19:19;;;;;;;;;;;16.10;99.90;;;;;;5135359;27;22233;-60
2022/05/13 11:21:45;;;;;;;;;;;16.10;99.90;;;;;;5152552;27;19989;-60
2022/05/13 11:27:00;;;;;;;;;;;16.10;99.90;;;;;;5146359;27;19923;-60
2022/05/13 11:29:41;;;;;;;;;;;16.20;99.90;;;;;;5132287;27;19972;-60
2022/05/13 11:32:12;;;;;;;;;;;16.50;99.90;;;;;;5137021;27;19923;-61
2022/05/13 11:34:44;;;;;;;;;;;16.60;99.90;;;;;;5145573;27;20546;-60
2022/05/13 11:37:12;;;;;;;;;;;16.40;99.90;;;;;;5154237;27;19930;-60
2022/05/13 11:39:48;;;;;;;;;;;16.10;99.90;;;;;;5154930;27;19922;-60
2022/05/13 11:42:24;;;;;;;;;;;15.90;99.90;;;;;;5154225;27;20361;-60
2022/05/13 11:45:01;;;;;;;;;;;15.70;99.90;;;;;;5154785;27;19980;-60
2022/05/13 11:47:51;;;;;;;;;;;15.60;99.90;;;;;;5154317;27;20353;-60
2022/05/13 11:50:17;;;;;;;;;;;15.50;99.90;;;;;;5154686;27;19923;-60
2022/05/13 11:52:44;;;;;;;;;;;15.60;99.90;;;;;;5144815;27;20403;-60
2022/05/13 11:55:12;;;;;;;;;;;15.60;99.90;;;;;;5154384;27;19945;-60
2022/05/13 11:57:40;;;;;;;;;;;15.70;99.90;;;;;;5154616;27;19923;-60
2022/05/13 12:00:16;;;;;;;;;;;15.80;99.90;;;;;;5136196;27;19927;-60
2022/05/13 12:02:45;;;;;;;;;;;15.90;99.90;;;;;;5153843;27;19924;-60
2022/05/13 12:05:24;;;;;;;;;;;15.90;99.90;;;;;;5154501;27;19926;-60
2022/05/13 12:07:51;;;;;;;;;;;16.10;99.90;;;;;;5154543;27;20292;-60
2022/05/13 12:10:18;;;;;;;;;;;16.10;99.90;;;;;;5153352;27;19919;-60
2022/05/13 12:12:59;;;;;;;;;;;16.00;99.90;;;;;;5151311;27;19923;-60
2022/05/13 12:15:32;;;;;;;;;;;16.00;99.90;;;;;;5150693;27;19923;-60
2022/05/13 12:18:03;;;;;;;;;;;16.00;99.90;;;;;;5135540;27;19971;-60
2022/05/13 12:20:40;;;;;;;;;;;16.10;99.90;;;;;;5123298;28;20358;-60
2022/05/13 12:23:12;;;;;;;;;;;16.30;99.90;;;;;;5144163;27;19927;-60
2022/05/13 12:25:37;;;;;;;;;;;16.50;99.90;;;;;;5153031;27;20002;-60
2022/05/13 12:28:07;;;;;;;;;;;16.70;99.90;;;;;;5137138;27;20010;-60
2022/05/13 12:30:35;;;;;;;;;;;16.90;99.90;;;;;;5114874;28;20010;-60
2022/05/13 12:33:29;;;;;;;;;;;16.90;99.90;;;;;;5115484;28;20373;-60
2022/05/13 12:39:00;;;;;;;;;;;16.50;99.90;;;;;;5153281;27;19923;-60
2022/05/13 12:41:38;;;;;;;;;;;16.50;99.90;;;;;;5154146;27;20473;-61
2022/05/13 12:44:15;;;;;;;;;;;16.40;99.90;;;;;;5153786;27;19923;-60
2022/05/13 12:46:42;;;;;;;;;;;16.40;99.90;;;;;;5135503;27;19976;-60
2022/05/13 12:49:12;;;;;;;;;;;16.30;99.90;;;;;;5133474;27;19930;-60
2022/05/13 12:51:45;;;;;;;;;;;16.10;99.90;;;;;;5133108;27;20011;-60
2022/05/13 12:54:11;;;;;;;;;;;16.10;99.90;;;;;;5122323;27;19923;-60
2022/05/13 12:56:42;;;;;;;;;;;16.00;99.90;;;;;;5138861;27;19930;-59
2022/05/13 12:59:16;;;;;;;;;;;16.10;99.90;;;;;;5157291;27;20046;-59
2022/05/13 13:01:45;;;;;;;;;;;16.30;99.90;;;;;;5158284;27;19962;-60
2022/05/13 13:04:12;;;;;;;;;;;16.80;99.90;;;;;;5157763;27;19985;-60
2022/05/13 13:06:41;;;;;;;;;;;16.90;99.50;;;;;;5157366;27;20383;-60
2022/05/13 13:09:10;;;;;;;;;;;16.80;99.40;;;;;;5157917;27;19962;-60
2022/05/13 13:11:43;;;;;;;;;;;16.80;99.80;;;;;;5157828;27;19983;-59
2022/05/13 13:14:17;;;;;;;;;;;16.80;99.20;;;;;;5157848;27;19923;-60
2022/05/13 13:16:48;;;;;;;;;;;17.30;98.10;;;;;;5157663;27;20028;-60
2022/05/13 13:19:17;;;;;;;;;;;17.80;98.40;;;;;;5156898;27;20388;-60
2022/05/13 13:21:43;;;;;;;;;;;17.80;98.30;;;;;;5132895;27;19924;-59
2022/05/13 13:24:13;;;;;;;;;;;17.70;98.40;;;;;;5137185;27;19927;-60
2022/05/13 13:26:40;;;;;;;;;;;17.50;97.30;;;;;;5145126;27;19923;-59
2022/05/13 13:29:05;;;;;;;;;;;17.20;97.80;;;;;;5157538;27;19996;-60
2022/05/13 13:31:36;;;;;;;;;;;17.10;98.30;;;;;;5157043;27;19927;-60
2022/05/13 13:34:02;;;;;;;;;;;17.10;98.80;;;;;;5153375;27;20035;-60
2022/05/13 13:36:29;;;;;;;;;;;17.30;98.60;;;;;;5136831;27;20384;-60
2022/05/13 13:39:00;;;;;;;;;;;17.70;98.10;;;;;;5138169;27;19932;-60
2022/05/13 13:41:31;;;;;;;;;;;17.80;98.10;;;;;;5156310;27;19927;-60
2022/05/13 13:43:58;;;;;;;;;;;17.80;98.50;;;;;;5157467;27;20015;-60
2022/05/13 13:46:29;;;;;;;;;;;17.60;97.90;;;;;;5157180;27;19919;-60
2022/05/13 13:48:56;;;;;;;;;;;17.50;97.30;;;;;;5155980;27;20281;-60
2022/05/13 13:51:24;;;;;;;;;;;17.20;97.90;;;;;;5157429;27;19930;-60
2022/05/13 13:53:55;;;;;;;;;;;17.10;98.70;;;;;;5129170;27;19924;-60
2022/05/13 13:56:22;;;;;;;;;;;16.90;98.10;;;;;;5136277;27;19992;-60
2022/05/13 13:58:52;;;;;;;;;;;17.20;98.50;;;;;;5156335;27;19930;-60
2022/05/13 14:01:19;;;;;;;;;;;17.60;98.30;;;;;;5137546;27;19923;-60
2022/05/13 14:03:45;;;;;;;;;;;17.80;97.10;;;;;;5155572;27;19999;-60
2022/05/13 14:06:14;;;;;;;;;;;17.70;95.90;;;;;;5156861;27;19923;-61
2022/05/13 14:08:40;;;;;;;;;;;17.50;95.80;;;;;;5156272;27;20357;-60
2022/05/13 14:11:10;;;;;;;;;;;17.40;96.30;;;;;;5137839;27;20349;-60
2022/05/13 14:13:41;;;;;;;;;;;17.20;96.60;;;;;;5157094;27;20285;-60
2022/05/13 14:16:09;;;;;;;;;;;17.20;97.50;;;;;;5155174;27;19979;-60
2022/05/13 14:18:36;;;;;;;;;;;17.20;96.60;;;;;;5156286;27;19927;-60
2022/05/13 14:21:09;;;;;;;;;;;17.00;96.40;;;;;;5156749;27;19923;-60
2022/05/13 14:23:35;;;;;;;;;;;16.80;97.50;;;;;;5155435;27;19927;-60
2022/05/13 14:26:02;;;;;;;;;;;16.70;97.50;;;;;;5133706;27;20437;-60
2022/05/13 14:28:30;;;;;;;;;;;16.70;97.70;;;;;;5143749;27;19923;-60
2022/05/13 14:30:58;;;;;;;;;;;16.90;97.80;;;;;;5155900;27;19923;-60
2022/05/13 14:33:27;;;;;;;;;;;17.10;97.40;;;;;;5155735;27;19923;-60
2022/05/13 14:35:53;;;;;;;;;;;17.00;97.50;;;;;;5137249;27;19930;-60
2022/05/13 14:41:24;;;;;;;;;;;17.40;97.40;;;;;;5151857;27;19967;-60
2022/05/13 14:43:50;;;;;;;;;;;17.50;96.90;;;;;;5155272;27;19923;-60
2022/05/13 14:46:16;;;;;;;;;;;17.30;97.20;;;;;;5151469;27;19924;-60
2022/05/13 14:48:41;;;;;;;;;;;17.20;97.20;;;;;;5134788;27;19924;-60
2022/05/13 14:51:16;;;;;;;;;;;17.20;97.10;;;;;;5147082;27;19939;-61
2022/05/13 14:53:47;;;;;;;;;;;17.00;97.20;;;;;;5155209;27;19927;-60
2022/05/13 14:56:15;;;;;;;;;;;17.00;98.00;;;;;;5141605;27;19924;-61